Ok, here’s the wind….

Peak gust to 48mph at HPN, Westchester County airport in our county.
Wind is roaring in strongest gusts.
Rain most of the time now.
Barometer falling rapidly.
Forecast for Newark Aiport, near NYC
KEWR 291436Z 2915/3018 02029G42KT 4SM -RA OVC015
FM291800 03034G50KT 2SM +RA OVC007
FM300000 08040G60KT 2SM +RA OVC007
FM300200 13045G65KT 3SM SHRA OVC008
FM300600 15038G60KT 4SM -SHRA OVC015
FM301100 16032G50KT 6SM -SHRA BKN035
FM301700 16028G42KT P6SM BKN050

Advertisements

Leave a Reply

Fill in your details below or click an icon to log in:

WordPress.com Logo

You are commenting using your WordPress.com account. Log Out / Change )

Twitter picture

You are commenting using your Twitter account. Log Out / Change )

Facebook photo

You are commenting using your Facebook account. Log Out / Change )

Google+ photo

You are commenting using your Google+ account. Log Out / Change )

Connecting to %s